sensor_id;sensor_type;location;lat;lon;timestamp;pressure;altitude;pressure_sealevel;temperature;humidity
64792;BME280;51226;47.504;19.074;2023-02-12T00:00:20;101523.28;;;5.52;65.13
64792;BME280;51226;47.504;19.074;2023-02-12T00:03:44;101528.31;;;5.50;65.24
64792;BME280;51226;47.504;19.074;2023-02-12T00:06:47;101524.34;;;5.44;65.47
64792;BME280;51226;47.504;19.074;2023-02-12T00:09:49;101510.06;;;5.37;65.87
64792;BME280;51226;47.504;19.074;2023-02-12T00:12:53;101511.66;;;5.47;66.09
64792;BME280;51226;47.504;19.074;2023-02-12T00:15:56;101506.00;;;5.41;66.49
64792;BME280;51226;47.504;19.074;2023-02-12T00:18:59;101519.19;;;5.44;66.91
64792;BME280;51226;47.504;19.074;2023-02-12T00:22:02;101501.72;;;5.41;67.09
64792;BME280;51226;47.504;19.074;2023-02-12T00:25:05;101504.91;;;5.49;67.11
64792;BME280;51226;47.504;19.074;2023-02-12T00:28:08;101507.81;;;5.42;67.39
64792;BME280;51226;47.504;19.074;2023-02-12T00:31:17;101509.16;;;5.36;67.51
64792;BME280;51226;47.504;19.074;2023-02-12T00:34:22;101515.59;;;5.42;67.66
64792;BME280;51226;47.504;19.074;2023-02-12T00:37:25;101510.66;;;5.45;67.63
64792;BME280;51226;47.504;19.074;2023-02-12T00:40:28;101506.91;;;5.41;67.90
64792;BME280;51226;47.504;19.074;2023-02-12T00:43:31;101517.94;;;5.38;67.77
64792;BME280;51226;47.504;19.074;2023-02-12T00:46:35;101519.78;;;5.29;68.14
64792;BME280;51226;47.504;19.074;2023-02-12T00:49:38;101508.91;;;5.33;68.30
64792;BME280;51226;47.504;19.074;2023-02-12T00:52:41;101505.78;;;5.37;68.39
64792;BME280;51226;47.504;19.074;2023-02-12T00:55:44;101498.09;;;5.27;68.69
64792;BME280;51226;47.504;19.074;2023-02-12T00:58:47;101511.06;;;5.39;68.60
64792;BME280;51226;47.504;19.074;2023-02-12T01:01:51;101504.09;;;5.38;68.70
64792;BME280;51226;47.504;19.074;2023-02-12T01:04:55;101517.81;;;5.37;68.85
64792;BME280;51226;47.504;19.074;2023-02-12T01:07:58;101525.69;;;5.38;68.95
64792;BME280;51226;47.504;19.074;2023-02-12T01:11:03;101524.56;;;5.35;69.06
64792;BME280;51226;47.504;19.074;2023-02-12T01:14:07;101526.50;;;5.49;68.88
64792;BME280;51226;47.504;19.074;2023-02-12T01:17:10;101526.00;;;5.31;69.24
64792;BME280;51226;47.504;19.074;2023-02-12T01:20:15;101522.25;;;5.28;69.29
64792;BME280;51226;47.504;19.074;2023-02-12T01:23:21;101514.34;;;5.36;69.44
64792;BME280;51226;47.504;19.074;2023-02-12T01:26:25;101501.81;;;5.31;69.40
64792;BME280;51226;47.504;19.074;2023-02-12T01:29:28;101485.19;;;5.39;69.40
64792;BME280;51226;47.504;19.074;2023-02-12T01:32:31;101491.81;;;5.35;69.24
64792;BME280;51226;47.504;19.074;2023-02-12T01:35:36;101470.66;;;5.29;69.69
64792;BME280;51226;47.504;19.074;2023-02-12T01:38:40;101472.47;;;5.30;69.59
64792;BME280;51226;47.504;19.074;2023-02-12T01:41:44;101467.94;;;5.28;69.74
64792;BME280;51226;47.504;19.074;2023-02-12T01:45:52;101463.25;;;5.34;69.50
64792;BME280;51226;47.504;19.074;2023-02-12T01:48:36;101464.13;;;5.34;69.70
64792;BME280;51226;47.504;19.074;2023-02-12T01:51:41;101472.94;;;5.36;69.71
64792;BME280;51226;47.504;19.074;2023-02-12T01:54:46;101477.41;;;5.27;69.98
64792;BME280;51226;47.504;19.074;2023-02-12T01:57:50;101486.66;;;5.35;69.72
64792;BME280;51226;47.504;19.074;2023-02-12T02:00:53;101497.59;;;5.21;70.29
64792;BME280;51226;47.504;19.074;2023-02-12T02:03:58;101504.72;;;5.24;70.43
64792;BME280;51226;47.504;19.074;2023-02-12T02:07:04;101496.19;;;5.25;70.40
64792;BME280;51226;47.504;19.074;2023-02-12T02:10:08;101496.31;;;5.26;70.20
64792;BME280;51226;47.504;19.074;2023-02-12T02:13:11;101496.75;;;5.32;70.19
64792;BME280;51226;47.504;19.074;2023-02-12T02:16:33;101505.78;;;5.37;69.94
64792;BME280;51226;47.504;19.074;2023-02-12T02:19:55;101497.19;;;5.27;70.15
64792;BME280;51226;47.504;19.074;2023-02-12T02:30:37;101519.62;;;5.16;70.51
64792;BME280;51226;47.504;19.074;2023-02-12T02:34:02;101522.34;;;5.17;70.84
64792;BME280;51226;47.504;19.074;2023-02-12T02:40:29;101544.59;;;5.15;70.52
64792;BME280;51226;47.504;19.074;2023-02-12T02:43:51;101547.94;;;5.14;70.94
64792;BME280;51226;47.504;19.074;2023-02-12T02:46:54;101538.94;;;5.09;71.34
64792;BME280;51226;47.504;19.074;2023-02-12T02:50:03;101537.38;;;5.11;71.47
64792;BME280;51226;47.504;19.074;2023-02-12T02:53:12;101547.31;;;5.17;71.38
64792;BME280;51226;47.504;19.074;2023-02-12T02:56:19;101549.81;;;5.27;71.32
64792;BME280;51226;47.504;19.074;2023-02-12T02:59:27;101543.94;;;5.18;71.71
64792;BME280;51226;47.504;19.074;2023-02-12T03:02:36;101542.19;;;5.07;71.85
64792;BME280;51226;47.504;19.074;2023-02-12T03:05:46;101547.72;;;5.11;72.07
64792;BME280;51226;47.504;19.074;2023-02-12T03:09:01;101549.88;;;4.95;72.40
64792;BME280;51226;47.504;19.074;2023-02-12T03:12:35;101559.16;;;5.03;72.57
64792;BME280;51226;47.504;19.074;2023-02-12T03:16:03;101564.19;;;5.01;72.50
64792;BME280;51226;47.504;19.074;2023-02-12T03:19:14;101574.31;;;5.20;72.12
64792;BME280;51226;47.504;19.074;2023-02-12T03:22:27;101568.28;;;5.10;72.25
64792;BME280;51226;47.504;19.074;2023-02-12T03:25:34;101575.00;;;5.08;72.52
64792;BME280;51226;47.504;19.074;2023-02-12T03:28:38;101593.41;;;5.00;72.57
64792;BME280;51226;47.504;19.074;2023-02-12T03:31:54;101591.06;;;5.04;72.58
64792;BME280;51226;47.504;19.074;2023-02-12T03:35:09;101601.97;;;4.99;72.78
64792;BME280;51226;47.504;19.074;2023-02-12T03:38:29;101595.75;;;4.97;72.60
64792;BME280;51226;47.504;19.074;2023-02-12T03:45:13;101598.44;;;4.99;72.73
64792;BME280;51226;47.504;19.074;2023-02-12T03:51:36;101611.25;;;4.97;72.76
64792;BME280;51226;47.504;19.074;2023-02-12T03:54:40;101600.84;;;5.08;72.64
64792;BME280;51226;47.504;19.074;2023-02-12T03:57:50;101607.13;;;4.99;72.71
64792;BME280;51226;47.504;19.074;2023-02-12T04:00:55;101617.44;;;5.10;72.76
64792;BME280;51226;47.504;19.074;2023-02-12T04:04:02;101617.56;;;5.11;72.57
64792;BME280;51226;47.504;19.074;2023-02-12T04:07:06;101621.28;;;5.15;72.46
64792;BME280;51226;47.504;19.074;2023-02-12T04:10:09;101619.50;;;5.04;72.75
64792;BME280;51226;47.504;19.074;2023-02-12T04:13:44;101632.59;;;4.95;73.00
64792;BME280;51226;47.504;19.074;2023-02-12T04:17:28;101639.66;;;5.08;72.61
64792;BME280;51226;47.504;19.074;2023-02-12T04:21:01;101648.72;;;5.03;72.83
64792;BME280;51226;47.504;19.074;2023-02-12T04:27:25;101657.03;;;4.98;73.13
64792;BME280;51226;47.504;19.074;2023-02-12T04:30:36;101674.84;;;4.95;73.08
64792;BME280;51226;47.504;19.074;2023-02-12T04:33:57;101673.47;;;4.89;73.30
64792;BME280;51226;47.504;19.074;2023-02-12T04:37:17;101670.09;;;4.90;73.43
64792;BME280;51226;47.504;19.074;2023-02-12T04:40:21;101664.78;;;4.98;73.42
64792;BME280;51226;47.504;19.074;2023-02-12T04:43:29;101669.94;;;4.98;73.40
64792;BME280;51226;47.504;19.074;2023-02-12T04:46:35;101686.63;;;4.92;73.46
64792;BME280;51226;47.504;19.074;2023-02-12T04:49:37;101676.16;;;4.90;73.59
64792;BME280;51226;47.504;19.074;2023-02-12T04:52:40;101680.56;;;4.91;73.66
64792;BME280;51226;47.504;19.074;2023-02-12T04:55:43;101690.25;;;4.94;73.59
64792;BME280;51226;47.504;19.074;2023-02-12T04:58:46;101693.25;;;4.88;73.51
64792;BME280;51226;47.504;19.074;2023-02-12T05:01:49;101696.56;;;4.97;73.42
64792;BME280;51226;47.504;19.074;2023-02-12T05:04:52;101705.50;;;4.91;73.34
64792;BME280;51226;47.504;19.074;2023-02-12T05:07:55;101704.47;;;4.89;73.53
64792;BME280;51226;47.504;19.074;2023-02-12T05:11:05;101720.53;;;4.85;73.49
64792;BME280;51226;47.504;19.074;2023-02-12T05:14:09;101713.41;;;4.82;73.60
64792;BME280;51226;47.504;19.074;2023-02-12T05:17:12;101721.69;;;4.78;73.73
64792;BME280;51226;47.504;19.074;2023-02-12T05:20:15;101725.81;;;4.76;73.84
64792;BME280;51226;47.504;19.074;2023-02-12T05:23:18;101730.22;;;4.77;73.95
64792;BME280;51226;47.504;19.074;2023-02-12T05:26:21;101739.78;;;4.78;73.99
64792;BME280;51226;47.504;19.074;2023-02-12T05:29:24;101756.81;;;4.76;74.06
64792;BME280;51226;47.504;19.074;2023-02-12T05:32:27;101761.50;;;4.70;74.21
64792;BME280;51226;47.504;19.074;2023-02-12T05:35:33;101757.09;;;4.69;74.25
64792;BME280;51226;47.504;19.074;2023-02-12T05:38:36;101752.81;;;4.69;74.25
64792;BME280;51226;47.504;19.074;2023-02-12T05:41:39;101759.81;;;4.70;74.13
64792;BME280;51226;47.504;19.074;2023-02-12T05:44:42;101760.72;;;4.71;74.33
64792;BME280;51226;47.504;19.074;2023-02-12T05:47:45;101765.75;;;4.69;74.28
64792;BME280;51226;47.504;19.074;2023-02-12T05:50:48;101764.34;;;4.73;74.08
64792;BME280;51226;47.504;19.074;2023-02-12T05:53:57;101767.03;;;4.64;74.20
64792;BME280;51226;47.504;19.074;2023-02-12T05:57:01;101779.59;;;4.59;74.41
64792;BME280;51226;47.504;19.074;2023-02-12T06:00:06;101789.41;;;4.63;74.52
64792;BME280;51226;47.504;19.074;2023-02-12T06:06:35;101793.81;;;4.64;74.59
64792;BME280;51226;47.504;19.074;2023-02-12T06:09:37;101807.09;;;4.69;74.52
64792;BME280;51226;47.504;19.074;2023-02-12T06:12:40;101805.16;;;4.67;74.57
64792;BME280;51226;47.504;19.074;2023-02-12T06:15:43;101813.41;;;4.62;74.71
64792;BME280;51226;47.504;19.074;2023-02-12T06:18:47;101809.31;;;4.64;74.94
64792;BME280;51226;47.504;19.074;2023-02-12T06:21:51;101815.09;;;4.82;74.96
64792;BME280;51226;47.504;19.074;2023-02-12T06:24:54;101818.62;;;4.83;74.89
64792;BME280;51226;47.504;19.074;2023-02-12T06:27:56;101817.06;;;4.85;74.78
64792;BME280;51226;47.504;19.074;2023-02-12T06:31:00;101812.41;;;4.91;74.56
64792;BME280;51226;47.504;19.074;2023-02-12T06:34:06;101822.63;;;4.90;74.64
64792;BME280;51226;47.504;19.074;2023-02-12T06:37:11;101824.78;;;5.06;74.96
64792;BME280;51226;47.504;19.074;2023-02-12T06:40:14;101823.97;;;5.27;73.87
64792;BME280;51226;47.504;19.074;2023-02-12T06:43:17;101822.97;;;5.25;73.63
64792;BME280;51226;47.504;19.074;2023-02-12T06:46:20;101843.00;;;5.17;73.87
64792;BME280;51226;47.504;19.074;2023-02-12T06:49:24;101847.53;;;5.20;73.93
64792;BME280;51226;47.504;19.074;2023-02-12T06:52:26;101858.00;;;5.32;73.42
64792;BME280;51226;47.504;19.074;2023-02-12T06:55:30;101857.47;;;5.26;73.60
64792;BME280;51226;47.504;19.074;2023-02-12T06:58:32;101873.25;;;5.29;73.70
64792;BME280;51226;47.504;19.074;2023-02-12T07:01:35;101868.75;;;5.36;73.53
64792;BME280;51226;47.504;19.074;2023-02-12T07:04:38;101864.81;;;5.52;72.92
64792;BME280;51226;47.504;19.074;2023-02-12T07:07:41;101870.28;;;5.45;73.05
64792;BME280;51226;47.504;19.074;2023-02-12T07:10:47;101881.91;;;5.50;73.13
64792;BME280;51226;47.504;19.074;2023-02-12T07:13:51;101886.25;;;5.71;72.54
64792;BME280;51226;47.504;19.074;2023-02-12T07:16:54;101891.91;;;5.78;72.20
64792;BME280;51226;47.504;19.074;2023-02-12T07:19:59;101885.03;;;5.88;71.78
64792;BME280;51226;47.504;19.074;2023-02-12T07:23:02;101895.25;;;5.97;71.76
64792;BME280;51226;47.504;19.074;2023-02-12T07:26:07;101894.03;;;6.14;70.94
64792;BME280;51226;47.504;19.074;2023-02-12T07:29:10;101914.31;;;6.20;70.61
64792;BME280;51226;47.504;19.074;2023-02-12T07:32:14;101922.72;;;6.27;70.46
64792;BME280;51226;47.504;19.074;2023-02-12T07:35:17;101917.44;;;6.48;69.76
64792;BME280;51226;47.504;19.074;2023-02-12T07:38:20;101918.47;;;6.72;68.82
64792;BME280;51226;47.504;19.074;2023-02-12T07:41:25;101921.25;;;6.85;68.43
64792;BME280;51226;47.504;19.074;2023-02-12T07:44:28;101923.25;;;7.12;67.11
64792;BME280;51226;47.504;19.074;2023-02-12T07:47:32;101933.59;;;7.34;66.35
64792;BME280;51226;47.504;19.074;2023-02-12T07:50:37;101936.88;;;7.67;65.57
64792;BME280;51226;47.504;19.074;2023-02-12T07:53:40;101941.19;;;8.13;64.35
64792;BME280;51226;47.504;19.074;2023-02-12T07:56:44;101936.06;;;8.62;62.72
64792;BME280;51226;47.504;19.074;2023-02-12T07:59:48;101929.09;;;9.77;59.46
64792;BME280;51226;47.504;19.074;2023-02-12T08:02:52;101924.03;;;12.37;50.71
64792;BME280;51226;47.504;19.074;2023-02-12T08:05:55;101918.28;;;15.47;42.83
64792;BME280;51226;47.504;19.074;2023-02-12T08:09:01;101921.37;;;17.66;36.69
64792;BME280;51226;47.504;19.074;2023-02-12T08:12:04;101929.53;;;17.74;36.23
64792;BME280;51226;47.504;19.074;2023-02-12T08:15:08;101921.28;;;17.89;36.56
64792;BME280;51226;47.504;19.074;2023-02-12T08:18:10;101920.59;;;19.44;33.70
64792;BME280;51226;47.504;19.074;2023-02-12T08:21:21;101926.97;;;19.86;32.93
64792;BME280;51226;47.504;19.074;2023-02-12T08:24:24;101931.16;;;19.76;33.53
64792;BME280;51226;47.504;19.074;2023-02-12T08:27:27;101933.12;;;19.85;32.85
64792;BME280;51226;47.504;19.074;2023-02-12T08:30:30;101934.16;;;21.10;31.05
64792;BME280;51226;47.504;19.074;2023-02-12T08:33:33;101940.28;;;22.67;28.09
64792;BME280;51226;47.504;19.074;2023-02-12T08:36:37;101938.69;;;23.61;26.56
64792;BME280;51226;47.504;19.074;2023-02-12T08:39:41;101936.97;;;23.66;26.24
64792;BME280;51226;47.504;19.074;2023-02-12T08:42:44;101935.47;;;23.96;26.20
64792;BME280;51226;47.504;19.074;2023-02-12T08:45:46;101929.03;;;25.30;24.43
64792;BME280;51226;47.504;19.074;2023-02-12T08:48:54;101937.91;;;26.33;23.07
64792;BME280;51226;47.504;19.074;2023-02-12T08:51:59;101937.06;;;26.14;23.06
64792;BME280;51226;47.504;19.074;2023-02-12T08:55:03;101935.31;;;25.97;23.00
64792;BME280;51226;47.504;19.074;2023-02-12T08:58:06;101936.13;;;26.42;22.17
64792;BME280;51226;47.504;19.074;2023-02-12T09:01:15;101938.87;;;26.07;22.89
64792;BME280;51226;47.504;19.074;2023-02-12T09:04:21;101954.78;;;25.14;24.49
64792;BME280;51226;47.504;19.074;2023-02-12T09:07:24;101961.91;;;25.09;24.42
64792;BME280;51226;47.504;19.074;2023-02-12T09:10:27;101955.81;;;26.20;23.77
64792;BME280;51226;47.504;19.074;2023-02-12T09:13:30;101964.81;;;27.94;21.50
64792;BME280;51226;47.504;19.074;2023-02-12T09:16:34;101964.47;;;30.67;18.70
64792;BME280;51226;47.504;19.074;2023-02-12T09:19:37;101969.97;;;33.68;15.76
64792;BME280;51226;47.504;19.074;2023-02-12T09:22:40;101970.38;;;35.96;13.64
64792;BME280;51226;47.504;19.074;2023-02-12T09:25:44;101968.06;;;37.63;12.81
64792;BME280;51226;47.504;19.074;2023-02-12T09:28:48;101967.25;;;38.98;11.77
64792;BME280;51226;47.504;19.074;2023-02-12T09:31:52;101974.38;;;40.10;10.73
64792;BME280;51226;47.504;19.074;2023-02-12T09:34:55;101968.59;;;40.88;9.96
64792;BME280;51226;47.504;19.074;2023-02-12T09:37:58;101967.56;;;41.45;9.08
64792;BME280;51226;47.504;19.074;2023-02-12T09:51:15;101968.81;;;42.71;8.63
64792;BME280;51226;47.504;19.074;2023-02-12T09:54:20;101977.84;;;42.22;8.78
64792;BME280;51226;47.504;19.074;2023-02-12T10:00:27;101977.78;;;41.83;8.81
64792;BME280;51226;47.504;19.074;2023-02-12T10:03:32;101970.38;;;42.11;8.23
64792;BME280;51226;47.504;19.074;2023-02-12T10:06:41;101977.16;;;42.18;9.13
64792;BME280;51226;47.504;19.074;2023-02-12T10:16:54;101985.28;;;40.41;9.27
64792;BME280;51226;47.504;19.074;2023-02-12T10:26:33;101990.34;;;30.27;16.24
64792;BME280;51226;47.504;19.074;2023-02-12T10:29:38;101999.34;;;28.27;17.96
64792;BME280;51226;47.504;19.074;2023-02-12T10:32:45;101995.81;;;26.77;20.30
64792;BME280;51226;47.504;19.074;2023-02-12T10:36:05;102004.78;;;25.77;20.75
64792;BME280;51226;47.504;19.074;2023-02-12T10:39:20;102000.19;;;25.21;21.18
64792;BME280;51226;47.504;19.074;2023-02-12T10:42:50;102008.72;;;24.50;22.33
64792;BME280;51226;47.504;19.074;2023-02-12T10:45:54;102008.47;;;24.16;24.11
64792;BME280;51226;47.504;19.074;2023-02-12T10:48:58;102013.47;;;23.79;23.41
64792;BME280;51226;47.504;19.074;2023-02-12T10:55:26;102001.78;;;23.65;23.58
64792;BME280;51226;47.504;19.074;2023-02-12T10:58:30;101999.06;;;23.62;24.84
64792;BME280;51226;47.504;19.074;2023-02-12T11:01:36;102004.41;;;23.62;23.02
64792;BME280;51226;47.504;19.074;2023-02-12T11:04:39;102000.75;;;23.54;23.18
64792;BME280;51226;47.504;19.074;2023-02-12T11:07:48;102004.72;;;23.10;23.73
64792;BME280;51226;47.504;19.074;2023-02-12T11:10:51;101997.34;;;22.92;23.91
64792;BME280;51226;47.504;19.074;2023-02-12T11:13:59;102007.28;;;23.02;23.80
64792;BME280;51226;47.504;19.074;2023-02-12T11:17:02;101997.97;;;22.14;26.06
64792;BME280;51226;47.504;19.074;2023-02-12T11:23:27;102005.34;;;20.51;26.50
64792;BME280;51226;47.504;19.074;2023-02-12T11:26:31;102006.81;;;19.68;28.06
64792;BME280;51226;47.504;19.074;2023-02-12T11:29:35;102003.47;;;19.12;29.14
64792;BME280;51226;47.504;19.074;2023-02-12T11:32:37;102008.25;;;19.25;28.43
64792;BME280;51226;47.504;19.074;2023-02-12T11:35:52;102010.13;;;19.29;29.15
64792;BME280;51226;47.504;19.074;2023-02-12T11:38:56;102006.00;;;19.39;28.62
64792;BME280;51226;47.504;19.074;2023-02-12T11:42:17;102010.97;;;19.92;28.04
64792;BME280;51226;47.504;19.074;2023-02-12T11:45:26;102008.44;;;19.63;29.85
64792;BME280;51226;47.504;19.074;2023-02-12T11:48:36;102015.41;;;19.29;28.42
64792;BME280;51226;47.504;19.074;2023-02-12T11:51:39;102007.44;;;18.40;29.86
64792;BME280;51226;47.504;19.074;2023-02-12T11:54:44;101999.22;;;17.53;32.41
64792;BME280;51226;47.504;19.074;2023-02-12T11:57:51;102007.97;;;17.04;32.16
64792;BME280;51226;47.504;19.074;2023-02-12T12:04:46;102020.19;;;16.79;32.67
64792;BME280;51226;47.504;19.074;2023-02-12T12:07:56;102007.00;;;16.79;32.64
64792;BME280;51226;47.504;19.074;2023-02-12T12:11:06;102011.72;;;16.22;34.43
64792;BME280;51226;47.504;19.074;2023-02-12T12:14:38;102005.12;;;15.70;36.16
64792;BME280;51226;47.504;19.074;2023-02-12T12:21:53;102008.25;;;14.63;37.41
64792;BME280;51226;47.504;19.074;2023-02-12T12:31:38;102004.56;;;13.71;39.65
64792;BME280;51226;47.504;19.074;2023-02-12T12:34:41;102003.75;;;13.56;39.93
64792;BME280;51226;47.504;19.074;2023-02-12T12:37:58;102005.25;;;13.34;41.38
64792;BME280;51226;47.504;19.074;2023-02-12T12:58:12;102010.50;;;12.70;41.99
64792;BME280;51226;47.504;19.074;2023-02-12T13:04:59;102013.03;;;12.69;42.96
64792;BME280;51226;47.504;19.074;2023-02-12T13:11:56;102005.97;;;12.51;41.84
64792;BME280;51226;47.504;19.074;2023-02-12T13:18:42;102010.47;;;12.39;43.45
64792;BME280;51226;47.504;19.074;2023-02-12T13:28:13;102020.25;;;11.82;45.88
64792;BME280;51226;47.504;19.074;2023-02-12T13:31:20;102022.38;;;11.59;46.52
64792;BME280;51226;47.504;19.074;2023-02-12T13:34:36;102034.78;;;11.48;46.96
64792;BME280;51226;47.504;19.074;2023-02-12T13:37:42;102039.97;;;11.34;46.52
64792;BME280;51226;47.504;19.074;2023-02-12T13:40:47;102036.72;;;11.23;47.41
64792;BME280;51226;47.504;19.074;2023-02-12T13:47:14;102033.31;;;11.10;47.57
64792;BME280;51226;47.504;19.074;2023-02-12T13:53:46;102037.47;;;11.07;48.08
64792;BME280;51226;47.504;19.074;2023-02-12T13:57:08;102036.66;;;11.08;47.66
64792;BME280;51226;47.504;19.074;2023-02-12T14:03:53;102042.31;;;10.87;48.65
64792;BME280;51226;47.504;19.074;2023-02-12T14:07:07;102046.34;;;10.82;48.84
64792;BME280;51226;47.504;19.074;2023-02-12T14:10:30;102038.38;;;10.94;47.91
64792;BME280;51226;47.504;19.074;2023-02-12T14:13:54;102037.25;;;11.04;47.90
64792;BME280;51226;47.504;19.074;2023-02-12T14:20:36;102048.53;;;11.03;48.09
64792;BME280;51226;47.504;19.074;2023-02-12T14:23:44;102049.03;;;10.97;48.24
64792;BME280;51226;47.504;19.074;2023-02-12T14:26:47;102040.31;;;10.97;48.15
64792;BME280;51226;47.504;19.074;2023-02-12T14:33:19;102047.97;;;10.80;48.61
64792;BME280;51226;47.504;19.074;2023-02-12T14:37:09;102058.50;;;10.68;48.79
64792;BME280;51226;47.504;19.074;2023-02-12T14:40:46;102057.84;;;10.57;49.21
64792;BME280;51226;47.504;19.074;2023-02-12T14:50:42;102061.97;;;10.29;49.79
64792;BME280;51226;47.504;19.074;2023-02-12T14:53:52;102060.28;;;10.16;50.75
64792;BME280;51226;47.504;19.074;2023-02-12T14:57:00;102071.59;;;10.03;50.98
64792;BME280;51226;47.504;19.074;2023-02-12T15:06:47;102067.81;;;9.73;51.39
64792;BME280;51226;47.504;19.074;2023-02-12T15:09:57;102065.72;;;9.80;50.04
64792;BME280;51226;47.504;19.074;2023-02-12T15:13:12;102066.81;;;9.71;50.42
64792;BME280;51226;47.504;19.074;2023-02-12T15:22:34;102087.22;;;9.39;51.81
64792;BME280;51226;47.504;19.074;2023-02-12T15:25:38;102088.22;;;9.41;51.40
64792;BME280;51226;47.504;19.074;2023-02-12T15:28:45;102081.56;;;9.33;52.25
64792;BME280;51226;47.504;19.074;2023-02-12T15:31:59;102084.75;;;9.29;52.88
64792;BME280;51226;47.504;19.074;2023-02-12T15:35:04;102084.66;;;9.27;53.06
64792;BME280;51226;47.504;19.074;2023-02-12T15:38:07;102081.81;;;9.24;53.42
64792;BME280;51226;47.504;19.074;2023-02-12T15:41:25;102079.09;;;9.23;52.74
64792;BME280;51226;47.504;19.074;2023-02-12T15:44:31;102073.56;;;9.18;53.00
64792;BME280;51226;47.504;19.074;2023-02-12T15:47:35;102084.13;;;9.08;53.08
64792;BME280;51226;47.504;19.074;2023-02-12T15:50:54;102087.09;;;9.01;53.52
64792;BME280;51226;47.504;19.074;2023-02-12T15:54:03;102086.53;;;8.93;53.97
64792;BME280;51226;47.504;19.074;2023-02-12T15:57:12;102093.81;;;8.85;53.76
64792;BME280;51226;47.504;19.074;2023-02-12T16:03:39;102104.53;;;8.78;53.49
64792;BME280;51226;47.504;19.074;2023-02-12T16:06:42;102108.97;;;8.67;54.07
64792;BME280;51226;47.504;19.074;2023-02-12T16:09:45;102108.16;;;8.57;54.58
64792;BME280;51226;47.504;19.074;2023-02-12T16:12:50;102124.09;;;8.49;55.51
64792;BME280;51226;47.504;19.074;2023-02-12T16:22:41;102134.38;;;8.48;54.60
64792;BME280;51226;47.504;19.074;2023-02-12T16:25:52;102140.91;;;8.31;55.38
64792;BME280;51226;47.504;19.074;2023-02-12T16:28:56;102136.34;;;8.28;55.52
64792;BME280;51226;47.504;19.074;2023-02-12T16:32:01;102146.59;;;8.15;56.32
64792;BME280;51226;47.504;19.074;2023-02-12T16:35:23;102148.31;;;8.14;56.31
64792;BME280;51226;47.504;19.074;2023-02-12T16:38:43;102145.13;;;8.07;56.90
64792;BME280;51226;47.504;19.074;2023-02-12T16:41:53;102154.12;;;8.00;57.09
64792;BME280;51226;47.504;19.074;2023-02-12T16:44:57;102150.91;;;8.14;56.17
64792;BME280;51226;47.504;19.074;2023-02-12T16:48:16;102158.44;;;8.00;56.93
64792;BME280;51226;47.504;19.074;2023-02-12T16:51:27;102164.78;;;8.03;57.08
64792;BME280;51226;47.504;19.074;2023-02-12T16:54:33;102174.03;;;8.00;57.11
64792;BME280;51226;47.504;19.074;2023-02-12T16:57:36;102173.84;;;7.86;58.13
64792;BME280;51226;47.504;19.074;2023-02-12T17:00:39;102180.88;;;7.87;58.11
64792;BME280;51226;47.504;19.074;2023-02-12T17:03:42;102184.56;;;7.79;58.26
64792;BME280;51226;47.504;19.074;2023-02-12T17:06:46;102182.50;;;7.75;58.63
64792;BME280;51226;47.504;19.074;2023-02-12T17:09:49;102188.78;;;7.89;57.69
64792;BME280;51226;47.504;19.074;2023-02-12T17:12:52;102193.31;;;7.91;57.59
64792;BME280;51226;47.504;19.074;2023-02-12T17:15:57;102193.19;;;7.90;57.56
64792;BME280;51226;47.504;19.074;2023-02-12T17:19:01;102197.47;;;7.89;57.50
64792;BME280;51226;47.504;19.074;2023-02-12T17:22:05;102190.97;;;7.72;58.44
64792;BME280;51226;47.504;19.074;2023-02-12T17:25:10;102191.62;;;7.70;58.40
64792;BME280;51226;47.504;19.074;2023-02-12T17:28:15;102188.00;;;7.68;58.73
64792;BME280;51226;47.504;19.074;2023-02-12T17:31:18;102191.16;;;7.64;59.06
64792;BME280;51226;47.504;19.074;2023-02-12T17:34:23;102193.25;;;7.57;59.65
64792;BME280;51226;47.504;19.074;2023-02-12T17:37:26;102188.56;;;7.64;58.99
64792;BME280;51226;47.504;19.074;2023-02-12T17:40:29;102190.53;;;7.56;59.73
64792;BME280;51226;47.504;19.074;2023-02-12T17:43:32;102190.72;;;7.47;60.34
64792;BME280;51226;47.504;19.074;2023-02-12T17:46:34;102193.38;;;7.59;59.23
64792;BME280;51226;47.504;19.074;2023-02-12T17:49:37;102202.50;;;7.54;59.63
64792;BME280;51226;47.504;19.074;2023-02-12T17:52:41;102202.44;;;7.42;60.53
64792;BME280;51226;47.504;19.074;2023-02-12T17:55:45;102205.53;;;7.38;61.00
64792;BME280;51226;47.504;19.074;2023-02-12T17:58:48;102206.75;;;7.31;61.21
64792;BME280;51226;47.504;19.074;2023-02-12T18:01:51;102205.97;;;7.32;61.46
64792;BME280;51226;47.504;19.074;2023-02-12T18:04:54;102211.56;;;7.27;61.65
64792;BME280;51226;47.504;19.074;2023-02-12T18:07:57;102224.31;;;7.23;61.72
64792;BME280;51226;47.504;19.074;2023-02-12T18:11:05;102220.53;;;7.20;61.88
64792;BME280;51226;47.504;19.074;2023-02-12T18:14:09;102226.41;;;7.17;62.17
64792;BME280;51226;47.504;19.074;2023-02-12T18:17:12;102219.50;;;7.18;62.38
64792;BME280;51226;47.504;19.074;2023-02-12T18:20:15;102218.75;;;7.19;61.81
64792;BME280;51226;47.504;19.074;2023-02-12T18:23:18;102224.94;;;7.21;61.71
64792;BME280;51226;47.504;19.074;2023-02-12T18:26:22;102234.53;;;7.32;60.76
64792;BME280;51226;47.504;19.074;2023-02-12T18:29:25;102237.88;;;7.31;60.85
64792;BME280;51226;47.504;19.074;2023-02-12T18:32:28;102233.16;;;7.15;61.36
64792;BME280;51226;47.504;19.074;2023-02-12T18:35:32;102236.09;;;7.30;58.14
64792;BME280;51226;47.504;19.074;2023-02-12T18:38:37;102236.75;;;7.28;57.36
64792;BME280;51226;47.504;19.074;2023-02-12T18:41:41;102239.00;;;7.13;57.85
64792;BME280;51226;47.504;19.074;2023-02-12T18:44:43;102233.84;;;7.02;58.74
64792;BME280;51226;47.504;19.074;2023-02-12T18:47:47;102242.16;;;6.98;59.83